createdAt,value
2022-11-08T00:01:34.941Z,25.83
2022-11-08T00:04:04.334Z,24.40
2022-11-08T00:06:50.303Z,22.88
2022-11-08T00:09:36.305Z,23.58
2022-11-08T00:12:23.226Z,22.45
2022-11-08T00:14:50.686Z,21.67
2022-11-08T00:17:18.836Z,21.10
2022-11-08T00:19:46.498Z,21.75
2022-11-08T00:22:14.465Z,22.08
2022-11-08T00:24:42.228Z,19.70
2022-11-08T00:27:13.491Z,20.13
2022-11-08T00:29:41.046Z,19.60
2022-11-08T00:32:09.671Z,20.23
2022-11-08T00:34:37.023Z,20.00
2022-11-08T00:37:04.570Z,18.45
2022-11-08T00:39:32.055Z,19.83
2022-11-08T00:41:59.489Z,20.27
2022-11-08T00:44:26.829Z,21.15
2022-11-08T00:46:54.492Z,20.70
2022-11-08T00:49:22.299Z,21.23
2022-11-08T00:51:49.664Z,21.35
2022-11-08T00:54:18.115Z,22.08
2022-11-08T00:56:46.261Z,20.90
2022-11-08T00:59:14.274Z,22.20
2022-11-08T01:01:42.589Z,23.17
2022-11-08T01:04:11.151Z,24.27
2022-11-08T01:06:39.069Z,24.38
2022-11-08T01:09:06.595Z,26.67
2022-11-08T01:11:34.176Z,30.33
2022-11-08T01:14:02.136Z,27.00
2022-11-08T01:16:30.822Z,25.20
2022-11-08T01:18:58.758Z,25.20
2022-11-08T01:21:26.724Z,25.92
2022-11-08T01:23:54.594Z,28.38
2022-11-08T01:26:26.503Z,25.38
2022-11-08T01:28:54.281Z,25.05
2022-11-08T01:31:22.782Z,26.30
2022-11-08T01:33:51.825Z,26.70
2022-11-08T01:36:20.958Z,26.30
2022-11-08T01:38:48.621Z,28.88
2022-11-08T01:41:16.835Z,28.58
2022-11-08T01:43:45.727Z,29.52
2022-11-08T01:46:19.434Z,27.67
2022-11-08T01:49:00.243Z,30.00
2022-11-08T01:51:30.180Z,30.10
2022-11-08T01:53:58.197Z,29.50
2022-11-08T01:56:25.550Z,30.58
2022-11-08T01:58:53.938Z,30.48
2022-11-08T02:01:21.488Z,31.48
2022-11-08T02:03:49.130Z,29.75
2022-11-08T02:06:16.874Z,29.05
2022-11-08T02:08:45.101Z,30.75
2022-11-08T02:11:13.859Z,29.38
2022-11-08T02:13:41.383Z,29.30
2022-11-08T02:16:12.972Z,27.90
2022-11-08T02:18:40.767Z,27.30
2022-11-08T02:21:11.514Z,27.23
2022-11-08T02:23:41.949Z,24.40
2022-11-08T02:26:09.390Z,26.88
2022-11-08T02:28:54.938Z,28.15
2022-11-08T02:33:50.064Z,29.23
2022-11-08T02:36:22.255Z,28.20
2022-11-08T02:38:54.694Z,29.63
2022-11-08T02:41:22.299Z,27.52
2022-11-08T02:43:49.652Z,27.90
2022-11-08T02:46:17.002Z,28.23
2022-11-08T02:48:44.358Z,28.67
2022-11-08T02:51:11.844Z,25.40
2022-11-08T02:53:39.258Z,23.80
2022-11-08T02:56:06.747Z,23.75
2022-11-08T02:58:34.083Z,22.63
2022-11-08T03:01:01.675Z,23.25
2022-11-08T03:03:29.091Z,23.15
2022-11-08T03:05:59.500Z,25.35
2022-11-08T03:08:26.892Z,25.52
2022-11-08T03:10:54.210Z,25.45
2022-11-08T03:13:21.678Z,25.60
2022-11-08T03:15:49.070Z,25.30
2022-11-08T03:18:16.801Z,27.02
2022-11-08T03:20:44.582Z,25.90
2022-11-08T03:23:12.040Z,25.25
2022-11-08T03:25:39.434Z,24.45
2022-11-08T03:28:09.236Z,23.90
2022-11-08T03:30:37.236Z,24.52
2022-11-08T03:33:05.038Z,24.98
2022-11-08T03:35:32.920Z,25.13
2022-11-08T03:38:00.275Z,26.30
2022-11-08T03:40:28.121Z,26.60
2022-11-08T03:43:00.010Z,26.02
2022-11-08T03:45:27.425Z,25.83
2022-11-08T03:47:54.898Z,28.90
2022-11-08T03:50:22.310Z,31.42
2022-11-08T03:52:56.063Z,26.63
2022-11-08T03:55:25.137Z,25.25
2022-11-08T03:57:52.589Z,26.48
2022-11-08T04:00:21.523Z,26.02
2022-11-08T04:02:49.134Z,26.65
2022-11-08T04:05:17.111Z,28.27
2022-11-08T04:07:44.473Z,29.17
2022-11-08T04:10:12.555Z,23.95
2022-11-08T04:13:02.045Z,22.95
2022-11-08T04:15:30.530Z,23.40
2022-11-08T04:18:17.147Z,23.08
2022-11-08T04:21:04.677Z,24.52
2022-11-08T04:23:33.130Z,20.80
2022-11-08T04:26:01.808Z,21.10
2022-11-08T04:28:32.943Z,22.90
2022-11-08T04:31:03.031Z,23.95
2022-11-08T04:33:30.836Z,24.25
2022-11-08T04:36:02.099Z,23.65
2022-11-08T04:38:30.549Z,30.63
2022-11-08T04:41:16.452Z,55.10
2022-11-08T04:43:43.866Z,67.07
2022-11-08T04:46:12.640Z,44.35
2022-11-08T04:48:40.310Z,50.40
2022-11-08T04:51:09.284Z,51.08
2022-11-08T04:53:36.657Z,53.28
2022-11-08T04:56:24.351Z,78.05
2022-11-08T04:58:53.165Z,77.90
2022-11-08T05:01:21.975Z,84.47
2022-11-08T05:03:50.195Z,89.15
2022-11-08T05:06:25.834Z,62.20
2022-11-08T05:08:54.949Z,49.95
2022-11-08T05:11:23.177Z,22.42
2022-11-08T05:13:50.983Z,15.95
2022-11-08T05:16:20.032Z,19.20
2022-11-08T05:18:47.581Z,16.80
2022-11-08T05:21:34.719Z,18.65
2022-11-08T05:24:02.905Z,22.52
2022-11-08T05:26:30.379Z,19.35
2022-11-08T05:28:57.774Z,19.02
2022-11-08T05:31:25.242Z,18.05
2022-11-08T05:33:55.868Z,17.02
2022-11-08T05:36:23.308Z,16.10
2022-11-08T05:38:50.676Z,18.38
2022-11-08T05:41:19.738Z,18.77
2022-11-08T05:43:48.105Z,17.00
2022-11-08T05:46:15.720Z,16.92
2022-11-08T05:48:44.118Z,16.73
2022-11-08T05:51:12.377Z,17.25
2022-11-08T05:53:42.785Z,22.83
2022-11-08T05:56:10.285Z,22.15
2022-11-08T05:58:37.912Z,15.38
2022-11-08T06:01:12.845Z,15.13
2022-11-08T06:03:40.647Z,11.77
2022-11-08T06:06:09.519Z,13.30
2022-11-08T06:08:37.274Z,12.95
2022-11-08T06:11:05.411Z,13.02
2022-11-08T06:13:33.429Z,14.18
2022-11-08T06:16:02.179Z,16.70
2022-11-08T06:18:30.074Z,16.35
2022-11-08T06:20:59.366Z,15.20
2022-11-08T06:23:27.256Z,17.88
2022-11-08T06:25:54.761Z,15.82
2022-11-08T06:28:22.386Z,20.10
2022-11-08T06:30:50.004Z,21.42
2022-11-08T06:33:17.576Z,23.90
2022-11-08T06:35:45.231Z,28.25
2022-11-08T06:38:12.642Z,27.60
2022-11-08T06:40:40.453Z,26.42
2022-11-08T06:43:07.809Z,28.20
2022-11-08T06:45:35.259Z,28.40
2022-11-08T06:48:03.421Z,25.75
2022-11-08T06:50:31.726Z,23.40
2022-11-08T06:52:59.547Z,24.48
2022-11-08T06:55:26.962Z,23.13
2022-11-08T06:57:54.597Z,22.67
2022-11-08T07:00:22.050Z,22.65
2022-11-08T07:02:55.742Z,22.90
2022-11-08T07:05:23.641Z,20.65
2022-11-08T07:07:54.126Z,20.60
2022-11-08T07:10:22.887Z,23.02
2022-11-08T07:12:50.966Z,21.27
2022-11-08T07:15:18.459Z,22.35
2022-11-08T07:17:45.889Z,22.80
2022-11-08T07:20:13.389Z,21.80
2022-11-08T07:22:40.750Z,21.45
2022-11-08T07:25:08.432Z,20.92
2022-11-08T07:27:35.926Z,20.77
2022-11-08T07:30:03.345Z,18.58
2022-11-08T07:32:30.814Z,19.25
2022-11-08T07:34:58.143Z,15.48
2022-11-08T07:37:25.574Z,14.57
2022-11-08T07:39:52.946Z,14.52
2022-11-08T07:42:20.351Z,14.93
2022-11-08T07:45:00.904Z,14.05
2022-11-08T07:47:28.383Z,13.30
2022-11-08T07:49:55.719Z,13.63
2022-11-08T07:52:23.192Z,12.27
2022-11-08T07:54:50.555Z,13.18
2022-11-08T07:57:18.029Z,13.00
2022-11-08T07:59:45.363Z,13.27
2022-11-08T08:02:13.183Z,12.35
2022-11-08T08:04:40.611Z,13.15
2022-11-08T08:07:08.180Z,14.77
2022-11-08T08:09:36.169Z,13.43
2022-11-08T08:12:03.856Z,12.90
2022-11-08T08:14:31.477Z,13.90
2022-11-08T08:16:58.943Z,13.07
2022-11-08T08:19:26.315Z,14.95
2022-11-08T08:21:53.807Z,15.38
2022-11-08T08:24:21.296Z,14.90
2022-11-08T08:26:48.871Z,15.55
2022-11-08T08:29:16.223Z,15.85
2022-11-08T08:31:43.687Z,17.02
2022-11-08T08:34:11.017Z,15.52
2022-11-08T08:36:38.453Z,15.55
2022-11-08T08:39:05.888Z,16.27
2022-11-08T08:41:33.265Z,15.27
2022-11-08T08:44:01.882Z,15.75
2022-11-08T08:46:29.283Z,14.98
2022-11-08T08:48:56.652Z,14.18
2022-11-08T08:51:24.152Z,15.43
2022-11-08T08:53:51.483Z,16.92
2022-11-08T08:56:18.886Z,15.23
2022-11-08T08:58:46.383Z,15.77
2022-11-08T09:04:02.720Z,16.73
2022-11-08T09:06:30.586Z,15.05
2022-11-08T09:08:58.022Z,15.98
2022-11-08T09:11:25.390Z,16.27
2022-11-08T09:13:52.818Z,15.38
2022-11-08T09:16:20.155Z,16.42
2022-11-08T09:18:47.809Z,15.68
2022-11-08T09:21:15.276Z,15.52
2022-11-08T09:23:42.836Z,15.68
2022-11-08T09:26:11.266Z,16.02
2022-11-08T09:28:38.733Z,16.20
2022-11-08T09:31:10.483Z,16.35
2022-11-08T09:33:39.250Z,16.90
2022-11-08T09:36:07.665Z,16.52
2022-11-08T09:38:35.179Z,16.25
2022-11-08T09:41:08.655Z,16.98
2022-11-08T09:43:52.913Z,17.45
2022-11-08T09:46:27.635Z,14.38
2022-11-08T09:48:56.362Z,15.40
2022-11-08T09:51:25.022Z,17.45
2022-11-08T09:53:57.037Z,17.30
2022-11-08T09:56:35.468Z,16.33
2022-11-08T09:59:27.493Z,16.52
2022-11-08T10:01:54.950Z,16.75
2022-11-08T10:04:24.555Z,16.58
2022-11-08T10:06:58.207Z,14.57
2022-11-08T10:09:32.413Z,14.77
2022-11-08T10:12:18.758Z,13.43
2022-11-08T10:15:00.216Z,13.35
2022-11-08T10:17:33.790Z,12.95
2022-11-08T10:20:21.501Z,15.60
2022-11-08T10:22:58.009Z,15.95
2022-11-08T10:25:25.445Z,25.08
2022-11-08T10:27:54.733Z,14.82
2022-11-08T10:30:24.115Z,26.48
2022-11-08T10:32:54.310Z,51.75
2022-11-08T10:35:27.979Z,36.97
2022-11-08T10:37:56.583Z,57.35
2022-11-08T10:40:29.972Z,30.98
2022-11-08T10:43:02.510Z,101.25
2022-11-08T10:45:32.983Z,92.68
2022-11-08T10:48:00.646Z,48.20
2022-11-08T10:50:50.762Z,71.85
2022-11-08T10:53:21.601Z,40.13
2022-11-08T10:55:50.939Z,18.15
2022-11-08T10:58:37.576Z,59.72
2022-11-08T11:01:14.309Z,48.13
2022-11-08T11:03:41.738Z,36.03
2022-11-08T11:06:21.708Z,75.75
2022-11-08T11:08:50.075Z,25.35
2022-11-08T11:11:28.180Z,58.05
2022-11-08T11:14:07.940Z,45.70
2022-11-08T11:17:11.263Z,37.15
2022-11-08T11:19:38.916Z,38.75
2022-11-08T11:22:08.001Z,15.70
2022-11-08T11:24:36.386Z,42.58
2022-11-08T11:27:05.949Z,43.63
2022-11-08T11:29:37.479Z,32.90
2022-11-08T11:32:24.024Z,16.75
2022-11-08T11:34:53.026Z,25.38
2022-11-08T11:37:23.470Z,43.30
2022-11-08T11:40:09.623Z,16.83
2022-11-08T11:42:46.687Z,28.33
2022-11-08T11:45:22.767Z,14.65
2022-11-08T11:47:57.263Z,16.33
2022-11-08T11:50:28.022Z,13.77
2022-11-08T11:52:56.405Z,27.50
2022-11-08T11:55:28.131Z,17.92
2022-11-08T11:58:14.583Z,23.02
2022-11-08T12:00:47.326Z,14.77
2022-11-08T12:03:21.505Z,11.73
2022-11-08T12:06:02.454Z,16.13
2022-11-08T12:08:29.919Z,12.38
2022-11-08T12:11:06.549Z,12.25
2022-11-08T12:13:37.056Z,10.85
2022-11-08T12:16:07.653Z,12.20
2022-11-08T12:18:43.254Z,11.27
2022-11-08T12:21:23.385Z,12.18
2022-11-08T12:23:53.882Z,10.45
2022-11-08T12:26:27.497Z,12.15
2022-11-08T12:29:19.766Z,13.18
2022-11-08T12:32:07.444Z,10.52
2022-11-08T12:34:37.973Z,9.93
2022-11-08T12:37:27.493Z,14.52
2022-11-08T12:40:02.073Z,11.63
2022-11-08T12:42:29.590Z,12.95
2022-11-08T12:45:02.881Z,16.08
2022-11-08T12:47:42.919Z,14.45
2022-11-08T12:50:20.754Z,20.33
2022-11-08T12:53:06.882Z,12.57
2022-11-08T12:55:36.366Z,12.25
2022-11-08T12:58:10.163Z,13.35
2022-11-08T13:00:40.524Z,10.63
2022-11-08T13:03:26.422Z,10.07
2022-11-08T13:06:06.144Z,12.80
2022-11-08T13:09:02.632Z,11.80
2022-11-08T13:11:36.196Z,11.20
2022-11-08T13:14:03.799Z,20.88
2022-11-08T13:16:41.616Z,10.68
2022-11-08T13:19:26.865Z,10.75
2022-11-08T13:24:43.264Z,12.82
2022-11-08T13:27:22.811Z,11.80
2022-11-08T13:29:50.305Z,14.85
2022-11-08T13:32:30.432Z,11.48
2022-11-08T13:35:08.264Z,13.90
2022-11-08T13:37:35.711Z,11.88
2022-11-08T13:40:15.314Z,12.52
2022-11-08T13:43:00.142Z,12.25
2022-11-08T13:45:32.822Z,13.07
2022-11-08T13:48:04.851Z,14.60
2022-11-08T13:50:33.818Z,12.63
2022-11-08T13:53:25.745Z,11.68
2022-11-08T13:55:55.542Z,12.70
2022-11-08T13:58:31.837Z,13.85
2022-11-08T14:00:59.996Z,13.15
2022-11-08T14:03:33.412Z,11.98
2022-11-08T14:06:06.949Z,11.75
2022-11-08T14:08:37.334Z,13.68
2022-11-08T14:11:10.792Z,12.52
2022-11-08T14:13:53.505Z,11.82
2022-11-08T14:16:23.627Z,19.70
2022-11-08T14:18:51.167Z,16.25
2022-11-08T14:21:20.182Z,13.70
2022-11-08T14:23:50.396Z,14.55
2022-11-08T14:26:25.530Z,15.55
2022-11-08T14:28:53.820Z,17.63
2022-11-08T14:31:25.700Z,22.58
2022-11-08T14:33:53.852Z,17.55
2022-11-08T14:36:22.010Z,27.13
2022-11-08T14:39:03.069Z,24.35
2022-11-08T14:41:30.949Z,28.65
2022-11-08T14:44:00.253Z,23.20
2022-11-08T14:46:27.627Z,21.92
2022-11-08T14:48:56.707Z,22.27
2022-11-08T14:51:24.615Z,19.02
2022-11-08T14:53:54.001Z,27.63
2022-11-08T14:56:21.378Z,22.48
2022-11-08T14:58:49.687Z,19.90
2022-11-08T15:01:19.949Z,22.50
2022-11-08T15:04:00.877Z,28.67
2022-11-08T15:06:48.766Z,27.17
2022-11-08T15:09:19.055Z,18.52
2022-11-08T15:11:52.758Z,22.77
2022-11-08T15:14:22.155Z,20.83
2022-11-08T15:16:50.535Z,21.42
2022-11-08T15:19:20.970Z,25.77
2022-11-08T15:21:51.705Z,29.02
2022-11-08T15:24:26.157Z,28.23
2022-11-08T15:27:01.769Z,30.88
2022-11-08T15:29:29.218Z,26.83
2022-11-08T15:32:01.868Z,28.10
2022-11-08T15:34:32.568Z,27.85
2022-11-08T15:37:00.053Z,27.40
2022-11-08T15:39:39.119Z,29.75
2022-11-08T15:42:13.160Z,32.80
2022-11-08T15:45:00.170Z,36.45
2022-11-08T15:47:42.896Z,38.92
2022-11-08T15:50:16.559Z,41.13
2022-11-08T15:52:44.767Z,43.25
2022-11-08T15:55:19.489Z,53.50
2022-11-08T15:57:47.679Z,74.75
2022-11-08T16:00:16.535Z,70.38
2022-11-08T16:02:44.478Z,56.28
2022-11-08T16:05:22.737Z,51.45
2022-11-08T16:07:50.515Z,129.77
2022-11-08T16:10:20.025Z,110.35
2022-11-08T16:12:48.570Z,118.53
2022-11-08T16:15:17.452Z,113.03
2022-11-08T16:17:44.923Z,117.55
2022-11-08T16:20:20.903Z,157.43
2022-11-08T16:22:48.322Z,194.52
2022-11-08T16:25:15.646Z,117.15
2022-11-08T16:27:43.050Z,96.25
2022-11-08T16:30:16.959Z,65.30
2022-11-08T16:32:44.545Z,76.88
2022-11-08T16:35:11.886Z,68.40
2022-11-08T16:37:39.419Z,46.95
2022-11-08T16:40:15.741Z,93.25
2022-11-08T16:42:43.201Z,58.45
2022-11-08T16:45:10.795Z,43.08
2022-11-08T16:47:38.264Z,45.17
2022-11-08T16:50:05.782Z,43.35
2022-11-08T16:52:33.232Z,43.95
2022-11-08T16:55:00.622Z,46.40
2022-11-08T16:57:34.608Z,43.50
2022-11-08T17:00:02.805Z,42.35
2022-11-08T17:02:31.737Z,41.35
2022-11-08T17:04:59.156Z,41.58
2022-11-08T17:07:29.842Z,46.50
2022-11-08T17:09:57.242Z,51.53
2022-11-08T17:12:24.714Z,52.80
2022-11-08T17:14:52.250Z,49.20
2022-11-08T17:17:19.672Z,46.72
2022-11-08T17:19:47.066Z,46.60
2022-11-08T17:22:14.450Z,50.15
2022-11-08T17:24:41.983Z,50.78
2022-11-08T17:27:09.433Z,50.00
2022-11-08T17:29:36.862Z,47.65
2022-11-08T17:32:04.278Z,46.80
2022-11-08T17:34:31.897Z,49.60
2022-11-08T17:36:59.281Z,49.70
2022-11-08T17:39:26.674Z,56.75
2022-11-08T17:41:54.129Z,58.65
2022-11-08T17:44:21.651Z,59.00
2022-11-08T17:46:50.213Z,56.53
2022-11-08T17:49:17.707Z,45.40
2022-11-08T17:51:45.097Z,39.08
2022-11-08T17:54:12.510Z,39.85
2022-11-08T17:56:40.069Z,37.15
2022-11-08T17:59:07.467Z,37.47
2022-11-08T18:01:34.998Z,39.65
2022-11-08T18:04:03.649Z,42.03
2022-11-08T18:06:34.599Z,49.05
2022-11-08T18:09:02.162Z,47.40
2022-11-08T18:11:29.831Z,50.08
2022-11-08T18:13:57.381Z,53.03
2022-11-08T18:16:24.735Z,48.42
2022-11-08T18:18:52.435Z,50.25
2022-11-08T18:21:20.722Z,44.38
2022-11-08T18:23:49.720Z,31.10
2022-11-08T18:26:18.471Z,37.30
2022-11-08T18:28:45.950Z,32.33
2022-11-08T18:31:14.526Z,30.58
2022-11-08T18:33:42.502Z,34.42
2022-11-08T18:36:20.493Z,31.25
2022-11-08T18:38:49.193Z,28.25
2022-11-08T18:41:17.779Z,27.23
2022-11-08T18:43:45.504Z,24.23
2022-11-08T18:46:14.433Z,23.60
2022-11-08T18:48:41.874Z,22.30
2022-11-08T18:51:10.744Z,19.85
2022-11-08T18:53:38.710Z,18.38
2022-11-08T18:56:07.311Z,18.65
2022-11-08T18:58:34.698Z,18.83
2022-11-08T19:01:02.338Z,19.13
2022-11-08T19:03:30.064Z,20.42
2022-11-08T19:05:57.710Z,20.55
2022-11-08T19:08:26.972Z,20.30
2022-11-08T19:10:54.316Z,21.60
2022-11-08T19:13:22.869Z,24.95
2022-11-08T19:15:59.548Z,24.33
2022-11-08T19:18:27.903Z,25.38
2022-11-08T19:20:58.635Z,32.40
2022-11-08T19:23:26.237Z,39.83
2022-11-08T19:25:54.417Z,30.75
2022-11-08T19:28:21.780Z,27.77
2022-11-08T19:30:53.235Z,29.08
2022-11-08T19:33:22.734Z,29.42
2022-11-08T19:35:50.214Z,25.95
2022-11-08T19:38:18.100Z,25.92
2022-11-08T19:40:47.417Z,26.40
2022-11-08T19:43:18.530Z,26.35
2022-11-08T19:45:50.785Z,27.58
2022-11-08T19:48:19.677Z,28.17
2022-11-08T19:50:47.386Z,26.67
2022-11-08T19:53:14.764Z,25.95
2022-11-08T19:55:42.118Z,28.30
2022-11-08T19:58:09.605Z,29.15
2022-11-08T20:00:37.572Z,28.88
2022-11-08T20:03:05.042Z,29.38
2022-11-08T20:05:32.802Z,28.08
2022-11-08T20:08:01.438Z,28.83
2022-11-08T20:10:30.099Z,29.10
2022-11-08T20:12:57.455Z,27.90
2022-11-08T20:15:24.820Z,27.52
2022-11-08T20:17:52.194Z,28.50
2022-11-08T20:20:19.999Z,29.42
2022-11-08T20:22:48.373Z,30.63
2022-11-08T20:25:16.023Z,30.75
2022-11-08T20:27:43.487Z,31.25
2022-11-08T20:30:11.218Z,31.33
2022-11-08T20:32:38.673Z,30.85
2022-11-08T20:35:06.274Z,31.05
2022-11-08T20:37:33.701Z,32.97
2022-11-08T20:40:01.043Z,34.33
2022-11-08T20:42:28.486Z,31.80
2022-11-08T20:44:55.864Z,30.23
2022-11-08T20:47:23.376Z,29.23
2022-11-08T20:49:50.936Z,28.80
2022-11-08T20:52:22.319Z,27.55
2022-11-08T20:54:49.876Z,27.15
2022-11-08T20:57:17.236Z,27.77
2022-11-08T20:59:44.664Z,28.13
2022-11-08T21:02:12.815Z,28.60
2022-11-08T21:04:40.318Z,26.80
2022-11-08T21:08:00.943Z,27.83
2022-11-08T21:10:07.694Z,24.65
2022-11-08T21:12:42.772Z,24.83
2022-11-08T21:15:10.359Z,25.25
2022-11-08T21:17:37.757Z,25.73
2022-11-08T21:20:05.273Z,28.23
2022-11-08T21:22:32.669Z,28.45
2022-11-08T21:25:00.011Z,25.50
2022-11-08T21:27:29.937Z,25.95
2022-11-08T21:29:57.615Z,26.75
2022-11-08T21:32:24.971Z,22.90
2022-11-08T21:34:52.529Z,23.30
2022-11-08T21:37:19.950Z,23.27
2022-11-08T21:39:47.471Z,23.77
2022-11-08T21:42:14.871Z,25.90
2022-11-08T21:44:42.304Z,25.20
2022-11-08T21:47:10.249Z,27.17
2022-11-08T21:49:37.642Z,27.20
2022-11-08T21:52:05.137Z,26.85
2022-11-08T21:54:32.610Z,26.00
2022-11-08T21:57:00.065Z,26.85
2022-11-08T21:59:27.517Z,28.25
2022-11-08T22:01:55.014Z,25.88
2022-11-08T22:04:22.454Z,23.83
2022-11-08T22:06:49.940Z,25.60
2022-11-08T22:09:17.409Z,23.92
2022-11-08T22:11:45.213Z,25.77
2022-11-08T22:14:12.702Z,23.60
2022-11-08T22:16:40.145Z,22.40
2022-11-08T22:19:07.947Z,23.25
2022-11-08T22:21:39.141Z,21.42
2022-11-08T22:24:06.906Z,21.85
2022-11-08T22:26:34.392Z,22.02
2022-11-08T22:29:03.282Z,22.92
2022-11-08T22:31:30.963Z,23.42
2022-11-08T22:33:58.400Z,21.85
2022-11-08T22:36:25.875Z,21.73
2022-11-08T22:38:53.267Z,21.40
2022-11-08T22:41:21.308Z,20.83
2022-11-08T22:43:49.251Z,20.65
2022-11-08T22:46:17.167Z,20.23
2022-11-08T22:48:44.571Z,21.55
2022-11-08T22:51:12.374Z,20.50
2022-11-08T22:53:39.791Z,20.83
2022-11-08T22:56:11.284Z,21.63
2022-11-08T22:58:39.672Z,21.92
2022-11-08T23:01:07.682Z,21.50
2022-11-08T23:03:35.175Z,20.35
2022-11-08T23:06:02.630Z,20.88
2022-11-08T23:08:30.282Z,20.80
2022-11-08T23:11:18.345Z,19.05
2022-11-08T23:14:04.892Z,18.38
2022-11-08T23:16:34.959Z,18.20
2022-11-08T23:19:21.873Z,18.83
2022-11-08T23:22:07.932Z,19.30
2022-11-08T23:24:35.390Z,18.77
2022-11-08T23:27:21.555Z,18.20
2022-11-08T23:30:08.310Z,18.95
2022-11-08T23:32:35.750Z,19.23
2022-11-08T23:35:03.206Z,19.20
2022-11-08T23:37:30.949Z,20.42
2022-11-08T23:40:17.242Z,19.52
2022-11-08T23:43:03.441Z,20.13
2022-11-08T23:45:30.850Z,20.13
2022-11-08T23:47:58.286Z,21.35
2022-11-08T23:50:25.723Z,20.38
2022-11-08T23:52:53.159Z,21.02
2022-11-08T23:55:20.518Z,21.38
2022-11-08T23:57:48.274Z,21.63
